createdAt,value
2018-09-09T00:00:47.036Z,70.49
2018-09-09T00:03:14.485Z,70.43
2018-09-09T00:05:42.030Z,70.78
2018-09-09T00:08:09.464Z,70.36
2018-09-09T00:10:36.940Z,70.65
2018-09-09T00:13:04.497Z,70.85
2018-09-09T00:15:31.913Z,71.18
2018-09-09T00:17:59.408Z,70.98
2018-09-09T00:20:26.998Z,70.89
2018-09-09T00:22:54.595Z,71.35
2018-09-09T00:25:22.142Z,71.29
2018-09-09T00:27:49.766Z,71.78
2018-09-09T00:30:17.208Z,71.41
2018-09-09T00:32:44.687Z,71.49
2018-09-09T00:35:12.301Z,71.45
2018-09-09T00:37:39.754Z,71.90
2018-09-09T00:40:07.242Z,71.88
2018-09-09T00:42:34.941Z,71.66
2018-09-09T00:45:02.479Z,71.70
2018-09-09T00:47:29.903Z,72.11
2018-09-09T00:50:02.773Z,71.63
2018-09-09T00:52:35.736Z,72.01
2018-09-09T00:55:03.363Z,72.43
2018-09-09T00:57:30.838Z,72.19
2018-09-09T00:59:58.346Z,72.16
2018-09-09T01:02:25.979Z,72.13
2018-09-09T01:04:53.515Z,72.33
2018-09-09T01:07:20.930Z,72.58
2018-09-09T01:09:48.481Z,72.63
2018-09-09T01:12:15.983Z,72.92
2018-09-09T01:14:43.474Z,72.16
2018-09-09T01:17:11.071Z,72.59
2018-09-09T01:19:38.520Z,72.55
2018-09-09T01:22:06.065Z,72.17
2018-09-09T01:24:33.961Z,72.63
2018-09-09T01:27:01.426Z,72.31
2018-09-09T01:29:28.879Z,72.32
2018-09-09T01:31:56.568Z,72.56
2018-09-09T01:34:24.021Z,72.62
2018-09-09T01:36:51.478Z,72.29
2018-09-09T01:39:19.085Z,72.37
2018-09-09T01:41:46.524Z,72.79
2018-09-09T01:44:14.002Z,72.99
2018-09-09T01:46:41.719Z,72.55
2018-09-09T01:49:09.160Z,72.58
2018-09-09T01:51:36.639Z,73.18
2018-09-09T01:54:04.214Z,72.71
2018-09-09T01:56:31.674Z,72.82
2018-09-09T01:58:59.076Z,72.79
2018-09-09T02:01:26.741Z,72.75
2018-09-09T02:03:54.197Z,73.35
2018-09-09T02:06:21.828Z,73.18
2018-09-09T02:08:49.366Z,73.26
2018-09-09T02:11:16.818Z,73.85
2018-09-09T02:13:44.285Z,73.29
2018-09-09T02:16:11.947Z,73.50
2018-09-09T02:18:39.424Z,73.73
2018-09-09T02:21:06.889Z,73.70
2018-09-09T02:23:34.619Z,73.36
2018-09-09T02:26:02.352Z,73.60
2018-09-09T02:28:29.826Z,73.41
2018-09-09T02:30:57.412Z,73.89
2018-09-09T02:33:24.843Z,73.82
2018-09-09T02:35:52.383Z,74.08
2018-09-09T02:38:20.116Z,73.73
2018-09-09T02:40:47.594Z,73.51
2018-09-09T02:43:15.045Z,73.81
2018-09-09T02:45:42.750Z,74.35
2018-09-09T02:48:10.231Z,74.41
2018-09-09T02:50:37.930Z,74.37
2018-09-09T02:53:05.762Z,74.42
2018-09-09T02:55:36.496Z,74.96
2018-09-09T02:58:03.968Z,75.00
2018-09-09T03:00:31.668Z,74.66
2018-09-09T03:02:59.168Z,75.15
2018-09-09T03:05:26.666Z,74.84
2018-09-09T03:07:54.287Z,75.11
2018-09-09T03:10:21.722Z,75.05
2018-09-09T03:12:49.110Z,74.88
2018-09-09T03:15:17.032Z,75.53
2018-09-09T03:17:44.481Z,75.10
2018-09-09T03:20:11.913Z,75.16
2018-09-09T03:22:39.552Z,75.44
2018-09-09T03:25:07.041Z,75.13
2018-09-09T03:27:34.646Z,75.07
2018-09-09T03:30:02.252Z,75.09
2018-09-09T03:32:29.733Z,75.21
2018-09-09T03:34:57.194Z,75.61
2018-09-09T03:37:24.872Z,75.61
2018-09-09T03:42:24.999Z,75.55
2018-09-09T03:44:52.790Z,75.66
2018-09-09T03:47:20.258Z,75.67
2018-09-09T03:49:47.751Z,75.87
2018-09-09T03:52:15.358Z,75.38
2018-09-09T03:54:42.872Z,75.48
2018-09-09T03:57:10.339Z,75.81
2018-09-09T03:59:38.070Z,75.56
2018-09-09T04:02:05.798Z,75.75
2018-09-09T04:04:33.298Z,75.99
2018-09-09T04:07:01.059Z,76.62
2018-09-09T04:09:28.505Z,75.94
2018-09-09T04:11:55.947Z,76.48
2018-09-09T04:14:23.606Z,76.67
2018-09-09T04:16:51.358Z,76.77
2018-09-09T04:19:18.759Z,76.59
2018-09-09T04:21:50.743Z,76.88
2018-09-09T04:24:18.652Z,76.53
2018-09-09T04:26:46.157Z,76.98
2018-09-09T04:29:14.203Z,76.83
2018-09-09T04:31:41.799Z,76.61
2018-09-09T04:34:09.364Z,76.65
2018-09-09T04:36:36.968Z,77.40
2018-09-09T04:39:07.350Z,77.52
2018-09-09T04:41:34.808Z,77.30
2018-09-09T04:44:02.465Z,77.17
2018-09-09T04:46:29.929Z,77.08
2018-09-09T04:48:57.436Z,77.17
2018-09-09T04:51:25.186Z,77.33
2018-09-09T04:53:52.598Z,77.09
2018-09-09T04:56:20.111Z,76.98
2018-09-09T04:58:47.715Z,76.68
2018-09-09T05:01:15.230Z,77.17
2018-09-09T05:03:45.458Z,77.20
2018-09-09T05:06:13.140Z,76.95
2018-09-09T05:08:40.662Z,77.03
2018-09-09T05:11:08.167Z,77.57
2018-09-09T05:13:35.732Z,77.24
2018-09-09T05:16:03.187Z,77.40
2018-09-09T05:18:30.668Z,77.26
2018-09-09T05:20:58.135Z,77.48
2018-09-09T05:23:25.646Z,77.50
2018-09-09T05:25:53.122Z,77.62
2018-09-09T05:28:20.759Z,77.98
2018-09-09T05:30:48.449Z,77.83
2018-09-09T05:33:15.882Z,77.55
2018-09-09T05:35:43.594Z,77.89
2018-09-09T05:38:11.099Z,77.81
2018-09-09T05:40:38.731Z,77.86
2018-09-09T05:43:06.349Z,77.87
2018-09-09T05:45:33.882Z,78.28
2018-09-09T05:48:01.335Z,77.82
2018-09-09T05:50:28.948Z,78.19
2018-09-09T05:52:56.388Z,78.06
2018-09-09T05:56:26.678Z,78.51
2018-09-09T05:58:54.237Z,78.36
2018-09-09T06:01:21.844Z,77.95
2018-09-09T06:03:49.509Z,78.16
2018-09-09T06:06:16.921Z,78.46
2018-09-09T06:08:44.439Z,78.21
2018-09-09T06:11:12.088Z,78.70
2018-09-09T06:13:39.514Z,78.14
2018-09-09T06:16:07.000Z,78.05
2018-09-09T06:18:34.697Z,78.44
2018-09-09T06:21:02.141Z,78.52
2018-09-09T06:23:29.644Z,78.31
2018-09-09T06:25:57.290Z,77.89
2018-09-09T06:28:24.877Z,78.14
2018-09-09T06:30:52.391Z,78.07
2018-09-09T06:33:19.924Z,78.59
2018-09-09T06:35:47.370Z,78.13
2018-09-09T06:38:14.884Z,78.31
2018-09-09T06:40:42.478Z,78.18
2018-09-09T06:43:09.995Z,78.25
2018-09-09T06:45:37.477Z,78.82
2018-09-09T06:48:05.062Z,78.22
2018-09-09T06:50:32.515Z,78.37
2018-09-09T06:52:59.970Z,78.35
2018-09-09T06:55:27.812Z,78.42
2018-09-09T06:57:55.265Z,78.76
2018-09-09T07:00:22.741Z,78.95
2018-09-09T07:02:50.403Z,78.45
2018-09-09T07:05:17.860Z,79.11
2018-09-09T07:07:45.367Z,78.92
2018-09-09T07:10:13.232Z,78.71
2018-09-09T07:12:40.700Z,78.51
2018-09-09T07:15:08.344Z,78.59
2018-09-09T07:17:36.270Z,78.72
2018-09-09T07:20:03.744Z,78.60
2018-09-09T07:22:31.221Z,79.09
2018-09-09T07:24:58.859Z,79.23
2018-09-09T07:27:26.314Z,78.84
2018-09-09T07:29:53.765Z,79.27
2018-09-09T07:32:21.581Z,78.77
2018-09-09T07:34:49.056Z,79.61
2018-09-09T07:37:16.559Z,78.78
2018-09-09T07:39:44.316Z,78.90
2018-09-09T07:42:11.748Z,79.28
2018-09-09T07:44:39.238Z,79.04
2018-09-09T07:47:07.022Z,79.09
2018-09-09T07:49:34.472Z,79.20
2018-09-09T07:52:01.894Z,79.18
2018-09-09T07:54:29.480Z,79.11
2018-09-09T07:56:56.925Z,79.32
2018-09-09T07:59:24.355Z,78.90
2018-09-09T08:02:22.493Z,79.24
2018-09-09T08:04:49.921Z,78.87
2018-09-09T08:07:17.354Z,79.26
2018-09-09T08:09:44.956Z,79.37
2018-09-09T08:12:12.440Z,79.31
2018-09-09T08:14:39.853Z,79.41
2018-09-09T08:17:07.623Z,79.48
2018-09-09T08:19:35.068Z,78.88
2018-09-09T08:22:02.541Z,79.05
2018-09-09T08:24:30.289Z,79.09
2018-09-09T08:26:57.712Z,79.58
2018-09-09T08:29:25.242Z,79.12
2018-09-09T08:31:52.898Z,79.59
2018-09-09T08:34:20.591Z,79.21
2018-09-09T08:36:48.084Z,79.16
2018-09-09T08:39:15.828Z,79.56
2018-09-09T08:41:43.288Z,79.68
2018-09-09T08:44:10.810Z,79.81
2018-09-09T08:46:38.483Z,79.56
2018-09-09T08:49:06.053Z,79.26
2018-09-09T08:51:33.779Z,79.61
2018-09-09T08:54:01.535Z,79.32
2018-09-09T08:57:31.727Z,79.47
2018-09-09T08:59:59.455Z,79.82
2018-09-09T09:02:26.922Z,79.37
2018-09-09T09:04:54.385Z,79.39
2018-09-09T09:07:22.046Z,79.28
2018-09-09T09:09:49.517Z,79.67
2018-09-09T09:12:17.046Z,79.64
2018-09-09T09:14:44.753Z,79.72
2018-09-09T09:17:12.239Z,79.75
2018-09-09T09:19:39.781Z,79.48
2018-09-09T09:22:07.517Z,79.41
2018-09-09T09:24:35.049Z,79.37
2018-09-09T09:27:02.536Z,79.56
2018-09-09T09:30:00.796Z,79.51
2018-09-09T09:32:28.312Z,79.11
2018-09-09T09:34:56.432Z,79.29
2018-09-09T09:37:25.172Z,79.44
2018-09-09T09:39:53.419Z,78.98
2018-09-09T09:42:21.120Z,78.97
2018-09-09T09:44:48.658Z,79.37
2018-09-09T09:47:16.164Z,79.35
2018-09-09T09:49:43.787Z,78.88
2018-09-09T09:52:11.286Z,79.35
2018-09-09T09:54:39.188Z,79.12
2018-09-09T09:57:07.389Z,78.91
2018-09-09T09:59:34.897Z,79.02
2018-09-09T10:02:02.507Z,79.45
2018-09-09T10:04:30.111Z,79.25
2018-09-09T10:06:57.509Z,78.96
2018-09-09T10:09:24.978Z,79.22
2018-09-09T10:11:52.413Z,79.19
2018-09-09T10:14:19.907Z,78.98
2018-09-09T10:16:47.426Z,79.17
2018-09-09T10:19:14.888Z,78.66
2018-09-09T10:21:42.408Z,78.60
2018-09-09T10:24:09.887Z,78.65
2018-09-09T10:26:37.351Z,79.17
2018-09-09T10:29:04.933Z,79.20
2018-09-09T10:31:32.438Z,78.70
2018-09-09T10:34:00.000Z,78.71
2018-09-09T10:36:27.733Z,79.16
2018-09-09T10:38:55.210Z,79.06
2018-09-09T10:41:22.740Z,78.63
2018-09-09T10:43:50.164Z,78.52
2018-09-09T10:46:17.826Z,78.48
2018-09-09T10:48:45.227Z,78.61
2018-09-09T10:51:12.683Z,79.01
2018-09-09T10:53:40.102Z,78.93
2018-09-09T10:56:07.542Z,78.93
2018-09-09T10:58:35.007Z,79.02
2018-09-09T11:01:02.521Z,78.44
2018-09-09T11:03:30.162Z,78.68
2018-09-09T11:05:57.851Z,78.49
2018-09-09T11:08:25.362Z,78.72
2018-09-09T11:10:52.806Z,78.32
2018-09-09T11:13:20.366Z,78.71
2018-09-09T11:15:47.851Z,78.17
2018-09-09T11:18:15.284Z,78.32
2018-09-09T11:20:42.814Z,78.28
2018-09-09T11:23:10.338Z,78.14
2018-09-09T11:25:43.378Z,77.81
2018-09-09T11:28:10.803Z,78.04
2018-09-09T11:30:38.304Z,77.87
2018-09-09T11:33:05.970Z,78.02
2018-09-09T11:35:33.472Z,78.13
2018-09-09T11:38:01.241Z,78.09
2018-09-09T11:40:28.796Z,78.26
2018-09-09T11:42:56.286Z,77.59
2018-09-09T11:45:23.747Z,77.74
2018-09-09T11:47:51.255Z,77.58
2018-09-09T11:50:18.802Z,77.97
2018-09-09T11:52:46.252Z,77.39
2018-09-09T11:55:13.724Z,77.53
2018-09-09T11:57:41.277Z,77.40
2018-09-09T12:00:08.888Z,77.78
2018-09-09T12:02:36.390Z,77.60
2018-09-09T12:05:03.868Z,77.58
2018-09-09T12:07:31.590Z,77.19
2018-09-09T12:09:59.072Z,77.01
2018-09-09T12:12:27.369Z,77.34
2018-09-09T12:14:55.470Z,77.26
2018-09-09T12:17:22.956Z,76.95
2018-09-09T12:19:50.401Z,77.18
2018-09-09T12:22:17.895Z,77.11
2018-09-09T12:24:45.369Z,77.00
2018-09-09T12:27:12.830Z,76.74
2018-09-09T12:29:40.275Z,76.91
2018-09-09T12:32:07.732Z,77.04
2018-09-09T12:34:35.197Z,77.15
2018-09-09T12:37:02.674Z,76.69
2018-09-09T12:39:30.406Z,76.75
2018-09-09T12:41:57.893Z,76.91
2018-09-09T12:44:30.999Z,77.01
2018-09-09T12:47:04.098Z,76.86
2018-09-09T12:49:31.573Z,76.57
2018-09-09T12:51:59.060Z,76.73
2018-09-09T12:54:26.517Z,76.52
2018-09-09T12:56:53.997Z,76.74
2018-09-09T12:59:21.512Z,76.80
2018-09-09T13:01:49.013Z,76.27
2018-09-09T13:04:16.475Z,76.18
2018-09-09T13:06:43.907Z,76.24
2018-09-09T13:09:11.534Z,76.73
2018-09-09T13:11:39.095Z,76.23
2018-09-09T13:14:06.725Z,76.22
2018-09-09T13:16:34.163Z,76.11
2018-09-09T13:19:01.547Z,76.66
2018-09-09T13:21:29.028Z,76.03
2018-09-09T13:23:56.560Z,76.01
2018-09-09T13:26:24.135Z,76.32
2018-09-09T13:28:51.521Z,76.07
2018-09-09T13:31:19.012Z,76.39
2018-09-09T13:33:46.544Z,76.51
2018-09-09T13:36:13.983Z,75.87
2018-09-09T13:38:41.456Z,76.03
2018-09-09T13:41:09.014Z,75.77
2018-09-09T13:43:36.495Z,76.08
2018-09-09T13:46:04.067Z,75.93
2018-09-09T13:48:31.591Z,76.06
2018-09-09T13:50:59.269Z,76.13
2018-09-09T13:53:26.860Z,76.05
2018-09-09T13:55:54.346Z,75.86
2018-09-09T13:58:21.850Z,76.11
2018-09-09T14:00:49.297Z,76.15
2018-09-09T14:03:16.776Z,76.12
2018-09-09T14:05:44.308Z,75.62
2018-09-09T14:08:11.768Z,75.33
2018-09-09T14:10:39.414Z,75.73
2018-09-09T14:13:06.907Z,75.41
2018-09-09T14:15:34.330Z,75.75
2018-09-09T14:18:01.782Z,75.61
2018-09-09T14:20:29.259Z,75.54
2018-09-09T14:22:56.670Z,75.47
2018-09-09T14:25:24.221Z,75.35
2018-09-09T14:27:51.764Z,75.21
2018-09-09T14:30:19.222Z,75.29
2018-09-09T14:32:46.681Z,75.06
2018-09-09T14:35:14.131Z,74.49
2018-09-09T14:37:41.664Z,74.79
2018-09-09T14:40:09.104Z,74.72
2018-09-09T14:42:36.740Z,74.77
2018-09-09T14:45:04.235Z,74.91
2018-09-09T14:47:31.725Z,74.69
2018-09-09T14:49:59.274Z,74.73
2018-09-09T14:52:26.733Z,74.25
2018-09-09T14:54:54.179Z,74.26
2018-09-09T14:57:21.665Z,74.45
2018-09-09T14:59:49.226Z,74.46
2018-09-09T15:02:16.730Z,74.51
2018-09-09T15:04:44.212Z,74.14
2018-09-09T15:07:11.692Z,74.51
2018-09-09T15:09:39.163Z,74.08
2018-09-09T15:12:06.923Z,74.56
2018-09-09T15:14:34.419Z,74.51
2018-09-09T15:17:01.863Z,73.99
2018-09-09T15:19:29.512Z,74.42
2018-09-09T15:21:56.982Z,74.58
2018-09-09T15:26:58.602Z,74.45
2018-09-09T15:29:26.115Z,74.06
2018-09-09T15:31:53.559Z,74.14
2018-09-09T15:34:21.102Z,74.68
2018-09-09T15:36:48.549Z,74.17
2018-09-09T15:39:16.019Z,74.21
2018-09-09T15:41:43.479Z,74.33
2018-09-09T15:44:11.169Z,74.28
2018-09-09T15:46:38.653Z,74.05
2018-09-09T15:49:06.120Z,74.14
2018-09-09T15:51:33.600Z,74.39
2018-09-09T15:54:01.065Z,74.60
2018-09-09T15:56:28.564Z,74.10
2018-09-09T15:58:56.142Z,74.51
2018-09-09T16:01:23.624Z,74.11
2018-09-09T16:03:51.070Z,74.24
2018-09-09T16:06:18.499Z,74.25
2018-09-09T16:08:45.987Z,74.44
2018-09-09T16:11:13.433Z,74.38
2018-09-09T16:13:41.062Z,74.42
2018-09-09T16:16:08.479Z,74.49
2018-09-09T16:18:35.894Z,74.52
2018-09-09T16:21:03.415Z,73.87
2018-09-09T16:23:30.880Z,73.96
2018-09-09T16:25:58.279Z,74.41
2018-09-09T16:28:25.808Z,74.57
2018-09-09T16:30:53.332Z,74.20
2018-09-09T16:33:20.822Z,74.12
2018-09-09T16:35:48.368Z,74.04
2018-09-09T16:38:15.807Z,73.87
2018-09-09T16:40:43.298Z,74.02
2018-09-09T16:43:10.821Z,74.38
2018-09-09T16:45:38.448Z,74.48
2018-09-09T16:48:06.363Z,73.96
2018-09-09T16:50:33.906Z,74.59
2018-09-09T16:53:01.293Z,74.12
2018-09-09T16:55:28.767Z,74.14
2018-09-09T16:57:56.238Z,74.56
2018-09-09T17:00:23.734Z,74.00
2018-09-09T17:02:51.170Z,74.10
2018-09-09T17:05:18.627Z,74.54
2018-09-09T17:07:46.092Z,74.31
2018-09-09T17:10:13.567Z,73.98
2018-09-09T17:12:41.039Z,74.11
2018-09-09T17:15:08.665Z,73.96
2018-09-09T17:17:36.142Z,74.57
2018-09-09T17:20:03.658Z,74.08
2018-09-09T17:22:31.179Z,74.30
2018-09-09T17:24:58.602Z,74.48
2018-09-09T17:27:26.045Z,74.42
2018-09-09T17:29:53.524Z,73.92
2018-09-09T17:32:20.978Z,73.83
2018-09-09T17:34:48.494Z,73.93
2018-09-09T17:37:15.965Z,74.31
2018-09-09T17:39:43.426Z,73.76
2018-09-09T17:42:10.855Z,74.19
2018-09-09T17:44:38.286Z,74.25
2018-09-09T17:47:05.993Z,74.27
2018-09-09T17:49:33.424Z,74.12
2018-09-09T17:52:00.852Z,73.94
2018-09-09T17:54:28.573Z,74.03
2018-09-09T17:56:56.053Z,74.41
2018-09-09T17:59:23.515Z,73.90
2018-09-09T18:01:51.011Z,74.42
2018-09-09T18:04:18.494Z,74.03
2018-09-09T18:06:46.022Z,74.41
2018-09-09T18:09:13.545Z,74.12
2018-09-09T18:11:41.040Z,74.46
2018-09-09T18:14:08.705Z,74.49
2018-09-09T18:16:36.234Z,74.57
2018-09-09T18:19:03.756Z,74.69
2018-09-09T18:21:31.235Z,74.73
2018-09-09T18:23:58.667Z,74.78
2018-09-09T18:26:26.135Z,74.89
2018-09-09T18:28:53.568Z,74.84
2018-09-09T18:31:21.032Z,75.00
2018-09-09T18:33:48.508Z,75.26
2018-09-09T18:36:15.950Z,74.71
2018-09-09T18:38:43.614Z,75.11
2018-09-09T18:41:11.029Z,75.31
2018-09-09T18:43:38.478Z,75.13
2018-09-09T18:46:06.170Z,75.12
2018-09-09T18:48:33.731Z,74.99
2018-09-09T18:51:01.221Z,75.28
2018-09-09T18:53:28.658Z,75.00
2018-09-09T18:55:56.166Z,75.01
2018-09-09T18:58:23.678Z,75.14
2018-09-09T19:00:51.353Z,75.55
2018-09-09T19:03:18.876Z,75.17
2018-09-09T19:05:46.422Z,75.50
2018-09-09T19:08:13.982Z,75.39
2018-09-09T19:10:41.495Z,75.47
2018-09-09T19:13:09.050Z,75.03
2018-09-09T19:15:36.518Z,74.98
2018-09-09T19:18:04.234Z,75.03
2018-09-09T19:20:31.694Z,75.17
2018-09-09T19:22:59.159Z,75.13
2018-09-09T19:25:26.734Z,75.04
2018-09-09T19:27:54.221Z,75.67
2018-09-09T19:30:21.646Z,75.29
2018-09-09T19:32:49.099Z,75.09
2018-09-09T19:35:16.578Z,75.09
2018-09-09T19:37:43.969Z,75.14
2018-09-09T19:40:11.439Z,75.50
2018-09-09T19:42:38.917Z,75.15
2018-09-09T19:45:06.792Z,75.17
2018-09-09T19:47:34.597Z,75.83
2018-09-09T19:50:03.347Z,75.03
2018-09-09T19:52:30.839Z,75.53
2018-09-09T19:54:58.437Z,75.04
2018-09-09T19:57:25.937Z,75.62
2018-09-09T19:59:53.567Z,75.33
2018-09-09T20:02:21.143Z,75.73
2018-09-09T20:04:48.701Z,75.71
2018-09-09T20:07:16.079Z,75.62
2018-09-09T20:09:43.538Z,75.79
2018-09-09T20:12:10.964Z,75.91
2018-09-09T20:14:38.437Z,75.56
2018-09-09T20:17:05.902Z,75.63
2018-09-09T20:19:33.369Z,75.85
2018-09-09T20:22:01.113Z,75.83
2018-09-09T20:24:28.520Z,75.64
2018-09-09T20:26:56.027Z,75.62
2018-09-09T20:29:23.497Z,75.58
2018-09-09T20:31:50.973Z,75.55
2018-09-09T20:34:18.470Z,75.49
2018-09-09T20:36:45.989Z,75.67
2018-09-09T20:39:13.473Z,75.61
2018-09-09T20:41:41.156Z,75.91
2018-09-09T20:44:08.681Z,76.10
2018-09-09T20:46:36.273Z,75.92
2018-09-09T20:49:03.758Z,75.84
2018-09-09T20:51:31.315Z,75.79
2018-09-09T20:53:58.775Z,75.93
2018-09-09T20:56:26.251Z,76.10
2018-09-09T20:58:53.793Z,76.07
2018-09-09T21:01:21.266Z,75.95
2018-09-09T21:03:48.696Z,76.26
2018-09-09T21:06:16.190Z,76.14
2018-09-09T21:08:43.661Z,75.79
2018-09-09T21:11:11.137Z,76.32
2018-09-09T21:13:38.721Z,76.00
2018-09-09T21:16:06.318Z,76.53
2018-09-09T21:18:33.840Z,76.15
2018-09-09T21:21:01.494Z,76.59
2018-09-09T21:23:28.948Z,76.27
2018-09-09T21:25:56.447Z,76.31
2018-09-09T21:28:23.873Z,76.44
2018-09-09T21:30:51.499Z,76.46
2018-09-09T21:33:18.982Z,76.75
2018-09-09T21:35:46.437Z,76.87
2018-09-09T21:38:13.995Z,76.52
2018-09-09T21:40:41.481Z,76.31
2018-09-09T21:43:08.881Z,76.88
2018-09-09T21:45:36.352Z,76.83
2018-09-09T21:48:04.042Z,76.61
2018-09-09T21:50:31.531Z,76.50
2018-09-09T21:52:59.140Z,77.01
2018-09-09T21:55:26.578Z,76.66
2018-09-09T21:57:54.038Z,76.70
2018-09-09T22:00:21.516Z,77.01
2018-09-09T22:02:48.989Z,76.63
2018-09-09T22:05:16.459Z,76.64
2018-09-09T22:07:43.909Z,76.70
2018-09-09T22:10:11.428Z,76.86
2018-09-09T22:12:38.957Z,76.96
2018-09-09T22:15:06.529Z,76.80
2018-09-09T22:17:33.964Z,76.66
2018-09-09T22:20:01.450Z,76.92
2018-09-09T22:22:29.362Z,77.20
2018-09-09T22:24:56.787Z,77.35
2018-09-09T22:27:24.224Z,76.83
2018-09-09T22:29:51.662Z,76.84
2018-09-09T22:32:19.142Z,76.89
2018-09-09T22:34:46.691Z,76.93
2018-09-09T22:37:14.210Z,77.42
2018-09-09T22:39:44.538Z,77.38
2018-09-09T22:42:11.993Z,77.56
2018-09-09T22:44:39.427Z,77.49
2018-09-09T22:47:06.928Z,77.43
2018-09-09T22:49:34.477Z,77.08
2018-09-09T22:52:01.920Z,77.45
2018-09-09T22:54:29.541Z,77.17
2018-09-09T22:56:57.036Z,77.54
2018-09-09T22:59:24.510Z,77.53
2018-09-09T23:01:51.966Z,77.17
2018-09-09T23:04:19.481Z,77.39
2018-09-09T23:06:46.961Z,77.58
2018-09-09T23:09:14.454Z,77.19
2018-09-09T23:11:41.926Z,77.13
2018-09-09T23:14:09.410Z,76.77
2018-09-09T23:16:36.972Z,77.46
2018-09-09T23:19:04.569Z,77.33
2018-09-09T23:21:32.037Z,76.95
2018-09-09T23:23:59.718Z,77.37
2018-09-09T23:26:27.240Z,77.37
2018-09-09T23:28:54.954Z,77.02
2018-09-09T23:31:22.418Z,77.22
2018-09-09T23:33:49.923Z,77.27
2018-09-09T23:36:17.384Z,77.50
2018-09-09T23:38:44.845Z,77.61
2018-09-09T23:41:12.320Z,77.32
2018-09-09T23:43:39.826Z,77.29
2018-09-09T23:46:07.293Z,77.48
2018-09-09T23:48:34.783Z,77.48
2018-09-09T23:51:02.310Z,77.46
2018-09-09T23:53:29.763Z,77.51
2018-09-09T23:55:57.763Z,77.13
2018-09-09T23:58:25.272Z,76.97
